sensor_id;sensor_type;location;lat;lon;timestamp;temperature;humidity
40622;DHT22;26324;52.040;11.528;2022-09-02T00:00:53;15.90;63.60
40622;DHT22;26324;52.040;11.528;2022-09-02T00:03:21;15.90;63.80
40622;DHT22;26324;52.040;11.528;2022-09-02T00:05:47;15.80;64.10
40622;DHT22;26324;52.040;11.528;2022-09-02T00:08:13;15.80;64.30
40622;DHT22;26324;52.040;11.528;2022-09-02T00:10:40;15.70;64.60
40622;DHT22;26324;52.040;11.528;2022-09-02T00:13:09;15.70;64.60
40622;DHT22;26324;52.040;11.528;2022-09-02T00:15:35;15.70;64.70
40622;DHT22;26324;52.040;11.528;2022-09-02T00:18:01;15.60;64.50
40622;DHT22;26324;52.040;11.528;2022-09-02T00:20:27;15.60;64.10
40622;DHT22;26324;52.040;11.528;2022-09-02T00:22:53;15.60;64.10
40622;DHT22;26324;52.040;11.528;2022-09-02T00:25:19;15.50;64.10
40622;DHT22;26324;52.040;11.528;2022-09-02T00:27:44;15.30;64.00
40622;DHT22;26324;52.040;11.528;2022-09-02T00:30:11;15.30;64.30
40622;DHT22;26324;52.040;11.528;2022-09-02T00:32:36;15.20;64.70
40622;DHT22;26324;52.040;11.528;2022-09-02T00:35:03;15.20;65.00
40622;DHT22;26324;52.040;11.528;2022-09-02T00:37:28;15.10;65.20
40622;DHT22;26324;52.040;11.528;2022-09-02T00:39:54;15.10;65.60
40622;DHT22;26324;52.040;11.528;2022-09-02T00:42:21;15.10;65.80
40622;DHT22;26324;52.040;11.528;2022-09-02T00:44:47;15.00;66.10
40622;DHT22;26324;52.040;11.528;2022-09-02T00:47:13;15.00;66.10
40622;DHT22;26324;52.040;11.528;2022-09-02T00:49:42;14.90;66.80
40622;DHT22;26324;52.040;11.528;2022-09-02T00:52:29;14.80;67.00
40622;DHT22;26324;52.040;11.528;2022-09-02T00:55:16;14.80;66.80
40622;DHT22;26324;52.040;11.528;2022-09-02T00:57:46;14.70;66.90
40622;DHT22;26324;52.040;11.528;2022-09-02T01:00:14;14.70;67.40
40622;DHT22;26324;52.040;11.528;2022-09-02T01:02:44;14.60;67.30
40622;DHT22;26324;52.040;11.528;2022-09-02T01:05:13;14.60;67.40
40622;DHT22;26324;52.040;11.528;2022-09-02T01:07:39;14.60;67.30
40622;DHT22;26324;52.040;11.528;2022-09-02T01:10:13;14.50;67.50
40622;DHT22;26324;52.040;11.528;2022-09-02T01:12:39;14.50;67.80
40622;DHT22;26324;52.040;11.528;2022-09-02T01:15:07;14.40;68.20
40622;DHT22;26324;52.040;11.528;2022-09-02T01:17:33;14.40;68.50
40622;DHT22;26324;52.040;11.528;2022-09-02T01:20:05;14.40;68.00
40622;DHT22;26324;52.040;11.528;2022-09-02T01:22:32;14.30;68.00
40622;DHT22;26324;52.040;11.528;2022-09-02T01:25:04;14.30;68.20
40622;DHT22;26324;52.040;11.528;2022-09-02T01:27:30;14.20;68.70
40622;DHT22;26324;52.040;11.528;2022-09-02T01:29:57;14.30;67.80
40622;DHT22;26324;52.040;11.528;2022-09-02T01:32:25;14.20;68.40
40622;DHT22;26324;52.040;11.528;2022-09-02T01:34:51;14.10;68.90
40622;DHT22;26324;52.040;11.528;2022-09-02T01:37:17;14.00;69.30
40622;DHT22;26324;52.040;11.528;2022-09-02T01:39:43;14.00;69.50
40622;DHT22;26324;52.040;11.528;2022-09-02T01:42:10;14.00;70.00
40622;DHT22;26324;52.040;11.528;2022-09-02T01:44:36;14.00;69.40
40622;DHT22;26324;52.040;11.528;2022-09-02T01:47:19;14.10;69.50
40622;DHT22;26324;52.040;11.528;2022-09-02T01:49:46;14.10;69.40
40622;DHT22;26324;52.040;11.528;2022-09-02T01:52:12;14.00;69.30
40622;DHT22;26324;52.040;11.528;2022-09-02T01:54:38;14.00;69.80
40622;DHT22;26324;52.040;11.528;2022-09-02T01:57:03;14.00;69.80
40622;DHT22;26324;52.040;11.528;2022-09-02T01:59:29;14.00;69.10
40622;DHT22;26324;52.040;11.528;2022-09-02T02:01:55;14.00;70.00
40622;DHT22;26324;52.040;11.528;2022-09-02T02:04:20;14.00;69.80
40622;DHT22;26324;52.040;11.528;2022-09-02T02:06:49;14.00;70.10
40622;DHT22;26324;52.040;11.528;2022-09-02T02:09:15;14.00;70.40
40622;DHT22;26324;52.040;11.528;2022-09-02T02:11:41;14.00;69.50
40622;DHT22;26324;52.040;11.528;2022-09-02T02:14:07;14.00;69.80
40622;DHT22;26324;52.040;11.528;2022-09-02T02:16:33;13.90;70.20
40622;DHT22;26324;52.040;11.528;2022-09-02T02:18:59;13.90;70.30
40622;DHT22;26324;52.040;11.528;2022-09-02T02:21:24;13.80;70.20
40622;DHT22;26324;52.040;11.528;2022-09-02T02:23:50;13.80;69.60
40622;DHT22;26324;52.040;11.528;2022-09-02T02:26:16;13.80;69.10
40622;DHT22;26324;52.040;11.528;2022-09-02T02:28:41;13.70;70.10
40622;DHT22;26324;52.040;11.528;2022-09-02T02:31:07;13.70;70.40
40622;DHT22;26324;52.040;11.528;2022-09-02T02:33:33;13.70;70.70
40622;DHT22;26324;52.040;11.528;2022-09-02T02:36:00;13.70;71.00
40622;DHT22;26324;52.040;11.528;2022-09-02T02:38:29;13.60;71.10
40622;DHT22;26324;52.040;11.528;2022-09-02T02:40:55;13.60;71.20
40622;DHT22;26324;52.040;11.528;2022-09-02T02:43:22;13.60;71.00
40622;DHT22;26324;52.040;11.528;2022-09-02T02:45:48;13.60;70.90
40622;DHT22;26324;52.040;11.528;2022-09-02T02:48:14;13.60;70.90
40622;DHT22;26324;52.040;11.528;2022-09-02T02:50:39;13.50;70.90
40622;DHT22;26324;52.040;11.528;2022-09-02T02:53:05;13.50;70.80
40622;DHT22;26324;52.040;11.528;2022-09-02T02:55:31;13.40;70.70
40622;DHT22;26324;52.040;11.528;2022-09-02T02:57:57;13.30;71.40
40622;DHT22;26324;52.040;11.528;2022-09-02T03:00:25;13.10;71.80
40622;DHT22;26324;52.040;11.528;2022-09-02T03:02:57;13.10;72.10
40622;DHT22;26324;52.040;11.528;2022-09-02T03:05:23;13.10;71.80
40622;DHT22;26324;52.040;11.528;2022-09-02T03:07:49;13.10;71.40
40622;DHT22;26324;52.040;11.528;2022-09-02T03:10:17;13.10;72.00
40622;DHT22;26324;52.040;11.528;2022-09-02T03:12:44;13.10;72.30
40622;DHT22;26324;52.040;11.528;2022-09-02T03:15:14;13.10;72.70
40622;DHT22;26324;52.040;11.528;2022-09-02T03:17:42;13.00;72.50
40622;DHT22;26324;52.040;11.528;2022-09-02T03:20:08;13.00;71.80
40622;DHT22;26324;52.040;11.528;2022-09-02T03:22:34;13.00;71.60
40622;DHT22;26324;52.040;11.528;2022-09-02T03:25:04;12.90;72.30
40622;DHT22;26324;52.040;11.528;2022-09-02T03:27:30;12.80;71.70
40622;DHT22;26324;52.040;11.528;2022-09-02T03:29:55;12.80;72.20
40622;DHT22;26324;52.040;11.528;2022-09-02T03:32:21;12.70;72.20
40622;DHT22;26324;52.040;11.528;2022-09-02T03:34:47;12.70;72.50
40622;DHT22;26324;52.040;11.528;2022-09-02T03:37:13;12.70;72.80
40622;DHT22;26324;52.040;11.528;2022-09-02T03:39:38;12.70;73.20
40622;DHT22;26324;52.040;11.528;2022-09-02T03:42:05;12.60;73.90
40622;DHT22;26324;52.040;11.528;2022-09-02T03:44:34;12.60;74.00
40622;DHT22;26324;52.040;11.528;2022-09-02T03:47:00;12.60;74.10
40622;DHT22;26324;52.040;11.528;2022-09-02T03:49:26;12.40;74.20
40622;DHT22;26324;52.040;11.528;2022-09-02T03:51:52;12.50;74.20
40622;DHT22;26324;52.040;11.528;2022-09-02T03:54:18;12.50;74.00
40622;DHT22;26324;52.040;11.528;2022-09-02T03:56:44;12.50;73.80
40622;DHT22;26324;52.040;11.528;2022-09-02T03:59:09;12.50;73.70
40622;DHT22;26324;52.040;11.528;2022-09-02T04:01:35;12.40;73.60
40622;DHT22;26324;52.040;11.528;2022-09-02T04:04:02;12.40;73.60
40622;DHT22;26324;52.040;11.528;2022-09-02T04:06:28;12.30;73.60
40622;DHT22;26324;52.040;11.528;2022-09-02T04:08:54;12.30;73.70
40622;DHT22;26324;52.040;11.528;2022-09-02T04:11:21;12.20;73.60
40622;DHT22;26324;52.040;11.528;2022-09-02T04:13:48;12.20;73.70
40622;DHT22;26324;52.040;11.528;2022-09-02T04:16:18;12.20;73.80
40622;DHT22;26324;52.040;11.528;2022-09-02T04:18:44;12.10;73.70
40622;DHT22;26324;52.040;11.528;2022-09-02T04:21:11;12.00;73.60
40622;DHT22;26324;52.040;11.528;2022-09-02T04:23:37;12.00;73.90
40622;DHT22;26324;52.040;11.528;2022-09-02T04:26:11;11.90;73.90
40622;DHT22;26324;52.040;11.528;2022-09-02T04:28:37;11.90;74.10
40622;DHT22;26324;52.040;11.528;2022-09-02T04:31:08;11.90;74.80
40622;DHT22;26324;52.040;11.528;2022-09-02T04:33:35;11.90;74.90
40622;DHT22;26324;52.040;11.528;2022-09-02T04:36:04;11.90;74.60
40622;DHT22;26324;52.040;11.528;2022-09-02T04:38:30;11.90;74.50
40622;DHT22;26324;52.040;11.528;2022-09-02T04:40:55;11.90;74.70
40622;DHT22;26324;52.040;11.528;2022-09-02T04:43:22;11.90;74.20
40622;DHT22;26324;52.040;11.528;2022-09-02T04:45:48;11.80;73.70
40622;DHT22;26324;52.040;11.528;2022-09-02T04:48:13;11.80;73.90
40622;DHT22;26324;52.040;11.528;2022-09-02T04:50:39;11.80;74.40
40622;DHT22;26324;52.040;11.528;2022-09-02T04:53:05;11.70;74.70
40622;DHT22;26324;52.040;11.528;2022-09-02T04:55:31;11.70;75.10
40622;DHT22;26324;52.040;11.528;2022-09-02T04:57:58;11.70;75.40
40622;DHT22;26324;52.040;11.528;2022-09-02T05:00:23;11.70;75.70
40622;DHT22;26324;52.040;11.528;2022-09-02T05:02:50;11.80;75.60
40622;DHT22;26324;52.040;11.528;2022-09-02T05:05:15;11.80;75.70
40622;DHT22;26324;52.040;11.528;2022-09-02T05:07:41;11.70;75.70
40622;DHT22;26324;52.040;11.528;2022-09-02T05:10:07;11.80;75.80
40622;DHT22;26324;52.040;11.528;2022-09-02T05:12:33;11.80;76.10
40622;DHT22;26324;52.040;11.528;2022-09-02T05:14:59;12.00;76.20
40622;DHT22;26324;52.040;11.528;2022-09-02T05:17:26;11.90;76.30
40622;DHT22;26324;52.040;11.528;2022-09-02T05:19:52;12.00;76.50
40622;DHT22;26324;52.040;11.528;2022-09-02T05:22:18;12.10;76.50
40622;DHT22;26324;52.040;11.528;2022-09-02T05:24:44;12.10;76.60
40622;DHT22;26324;52.040;11.528;2022-09-02T05:27:10;12.20;76.50
40622;DHT22;26324;52.040;11.528;2022-09-02T05:29:36;12.30;76.10
40622;DHT22;26324;52.040;11.528;2022-09-02T05:32:02;12.50;76.10
40622;DHT22;26324;52.040;11.528;2022-09-02T05:34:28;12.50;75.90
40622;DHT22;26324;52.040;11.528;2022-09-02T05:36:54;12.60;75.60
40622;DHT22;26324;52.040;11.528;2022-09-02T05:39:19;12.60;75.80
40622;DHT22;26324;52.040;11.528;2022-09-02T05:41:45;12.70;75.90
40622;DHT22;26324;52.040;11.528;2022-09-02T05:44:11;12.80;75.70
40622;DHT22;26324;52.040;11.528;2022-09-02T05:46:36;12.80;75.70
40622;DHT22;26324;52.040;11.528;2022-09-02T05:49:03;12.90;75.70
40622;DHT22;26324;52.040;11.528;2022-09-02T05:51:53;13.00;75.80
40622;DHT22;26324;52.040;11.528;2022-09-02T05:54:25;13.10;75.60
40622;DHT22;26324;52.040;11.528;2022-09-02T05:56:54;13.30;75.70
40622;DHT22;26324;52.040;11.528;2022-09-02T05:59:21;13.40;75.30
40622;DHT22;26324;52.040;11.528;2022-09-02T06:01:48;13.50;75.10
40622;DHT22;26324;52.040;11.528;2022-09-02T06:04:14;13.60;74.90
40622;DHT22;26324;52.040;11.528;2022-09-02T06:06:40;13.80;74.60
40622;DHT22;26324;52.040;11.528;2022-09-02T06:09:09;13.90;74.00
40622;DHT22;26324;52.040;11.528;2022-09-02T06:11:36;14.00;74.00
40622;DHT22;26324;52.040;11.528;2022-09-02T06:14:05;14.10;73.60
40622;DHT22;26324;52.040;11.528;2022-09-02T06:16:32;14.30;73.00
40622;DHT22;26324;52.040;11.528;2022-09-02T06:18:57;14.40;72.10
40622;DHT22;26324;52.040;11.528;2022-09-02T06:21:23;14.60;71.50
40622;DHT22;26324;52.040;11.528;2022-09-02T06:23:48;14.70;71.20
40622;DHT22;26324;52.040;11.528;2022-09-02T06:26:16;14.80;70.80
40622;DHT22;26324;52.040;11.528;2022-09-02T06:28:42;15.00;70.40
40622;DHT22;26324;52.040;11.528;2022-09-02T06:31:16;14.90;70.00
40622;DHT22;26324;52.040;11.528;2022-09-02T06:33:43;15.10;70.10
40622;DHT22;26324;52.040;11.528;2022-09-02T06:36:12;15.30;69.80
40622;DHT22;26324;52.040;11.528;2022-09-02T06:38:39;15.40;69.60
40622;DHT22;26324;52.040;11.528;2022-09-02T06:41:10;15.60;68.70
40622;DHT22;26324;52.040;11.528;2022-09-02T06:43:35;15.70;68.50
40622;DHT22;26324;52.040;11.528;2022-09-02T06:46:01;15.70;67.80
40622;DHT22;26324;52.040;11.528;2022-09-02T06:48:27;15.80;67.20
40622;DHT22;26324;52.040;11.528;2022-09-02T06:50:52;16.00;67.10
40622;DHT22;26324;52.040;11.528;2022-09-02T06:53:19;16.10;66.80
40622;DHT22;26324;52.040;11.528;2022-09-02T06:55:45;16.30;66.00
40622;DHT22;26324;52.040;11.528;2022-09-02T06:58:11;16.30;64.80
40622;DHT22;26324;52.040;11.528;2022-09-02T07:00:38;16.50;64.90
40622;DHT22;26324;52.040;11.528;2022-09-02T07:03:05;16.50;65.20
40622;DHT22;26324;52.040;11.528;2022-09-02T07:06:10;16.60;64.80
40622;DHT22;26324;52.040;11.528;2022-09-02T07:08:40;16.80;64.00
40622;DHT22;26324;52.040;11.528;2022-09-02T07:11:14;16.90;63.80
40622;DHT22;26324;52.040;11.528;2022-09-02T07:13:39;17.10;63.00
40622;DHT22;26324;52.040;11.528;2022-09-02T07:16:05;17.20;62.80
40622;DHT22;26324;52.040;11.528;2022-09-02T07:18:32;17.30;62.30
40622;DHT22;26324;52.040;11.528;2022-09-02T07:20:58;17.10;62.80
40622;DHT22;26324;52.040;11.528;2022-09-02T07:23:23;17.30;62.80
40622;DHT22;26324;52.040;11.528;2022-09-02T07:25:49;17.30;61.90
40622;DHT22;26324;52.040;11.528;2022-09-02T07:28:15;17.50;61.10
40622;DHT22;26324;52.040;11.528;2022-09-02T07:30:41;17.50;61.30
40622;DHT22;26324;52.040;11.528;2022-09-02T07:33:07;17.60;60.80
40622;DHT22;26324;52.040;11.528;2022-09-02T07:35:33;17.80;60.00
40622;DHT22;26324;52.040;11.528;2022-09-02T07:38:02;18.00;59.50
40622;DHT22;26324;52.040;11.528;2022-09-02T07:40:28;18.20;58.50
40622;DHT22;26324;52.040;11.528;2022-09-02T07:42:54;18.30;58.30
40622;DHT22;26324;52.040;11.528;2022-09-02T07:45:20;18.20;58.10
40622;DHT22;26324;52.040;11.528;2022-09-02T07:47:46;18.30;58.70
40622;DHT22;26324;52.040;11.528;2022-09-02T07:50:12;18.50;57.80
40622;DHT22;26324;52.040;11.528;2022-09-02T07:52:38;18.60;56.80
40622;DHT22;26324;52.040;11.528;2022-09-02T07:55:05;18.80;55.90
40622;DHT22;26324;52.040;11.528;2022-09-02T07:57:30;18.80;56.40
40622;DHT22;26324;52.040;11.528;2022-09-02T07:59:56;19.00;56.30
40622;DHT22;26324;52.040;11.528;2022-09-02T08:02:22;19.00;55.20
40622;DHT22;26324;52.040;11.528;2022-09-02T08:04:47;19.10;55.80
40622;DHT22;26324;52.040;11.528;2022-09-02T08:07:13;19.30;54.20
40622;DHT22;26324;52.040;11.528;2022-09-02T08:09:38;19.30;54.60
40622;DHT22;26324;52.040;11.528;2022-09-02T08:12:04;19.40;54.10
40622;DHT22;26324;52.040;11.528;2022-09-02T08:14:30;19.50;53.80
40622;DHT22;26324;52.040;11.528;2022-09-02T08:16:56;19.60;53.80
40622;DHT22;26324;52.040;11.528;2022-09-02T08:19:23;19.80;53.50
40622;DHT22;26324;52.040;11.528;2022-09-02T08:21:49;20.00;52.50
40622;DHT22;26324;52.040;11.528;2022-09-02T08:24:15;20.00;51.80
40622;DHT22;26324;52.040;11.528;2022-09-02T08:26:40;20.00;52.50
40622;DHT22;26324;52.040;11.528;2022-09-02T08:29:07;20.10;52.70
40622;DHT22;26324;52.040;11.528;2022-09-02T08:31:33;20.30;51.90
40622;DHT22;26324;52.040;11.528;2022-09-02T08:33:59;20.50;51.20
40622;DHT22;26324;52.040;11.528;2022-09-02T08:36:25;20.50;49.30
40622;DHT22;26324;52.040;11.528;2022-09-02T08:38:52;20.60;50.00
40622;DHT22;26324;52.040;11.528;2022-09-02T08:41:23;20.70;49.10
40622;DHT22;26324;52.040;11.528;2022-09-02T08:43:51;21.00;50.50
40622;DHT22;26324;52.040;11.528;2022-09-02T08:46:20;21.10;48.90
40622;DHT22;26324;52.040;11.528;2022-09-02T08:49:02;21.30;49.50
40622;DHT22;26324;52.040;11.528;2022-09-02T08:51:36;21.10;48.00
40622;DHT22;26324;52.040;11.528;2022-09-02T08:54:21;21.00;47.70
40622;DHT22;26324;52.040;11.528;2022-09-02T08:56:49;21.00;49.00
40622;DHT22;26324;52.040;11.528;2022-09-02T08:59:18;21.20;47.70
40622;DHT22;26324;52.040;11.528;2022-09-02T09:07:34;22.00;46.90
40622;DHT22;26324;52.040;11.528;2022-09-02T09:13:13;22.10;44.90
40622;DHT22;26324;52.040;11.528;2022-09-02T09:16:23;22.20;44.70
40622;DHT22;26324;52.040;11.528;2022-09-02T09:21:33;22.40;43.20
40622;DHT22;26324;52.040;11.528;2022-09-02T09:24:05;22.70;42.70
40622;DHT22;26324;52.040;11.528;2022-09-02T09:26:31;22.80;42.70
40622;DHT22;26324;52.040;11.528;2022-09-02T09:28:58;22.70;41.70
40622;DHT22;26324;52.040;11.528;2022-09-02T09:31:28;22.90;41.40
40622;DHT22;26324;52.040;11.528;2022-09-02T09:34:07;23.10;40.70
40622;DHT22;26324;52.040;11.528;2022-09-02T09:39:40;23.10;40.20
40622;DHT22;26324;52.040;11.528;2022-09-02T09:42:12;23.40;39.80
40622;DHT22;26324;52.040;11.528;2022-09-02T09:44:42;23.60;37.20
40622;DHT22;26324;52.040;11.528;2022-09-02T09:47:20;23.70;37.20
40622;DHT22;26324;52.040;11.528;2022-09-02T09:49:49;23.50;37.20
40622;DHT22;26324;52.040;11.528;2022-09-02T09:52:41;23.30;38.60
40622;DHT22;26324;52.040;11.528;2022-09-02T09:55:20;23.00;39.20
40622;DHT22;26324;52.040;11.528;2022-09-02T09:57:47;23.20;37.70
40622;DHT22;26324;52.040;11.528;2022-09-02T10:00:26;23.50;37.50
40622;DHT22;26324;52.040;11.528;2022-09-02T10:02:54;23.50;36.70
40622;DHT22;26324;52.040;11.528;2022-09-02T10:08:01;23.30;37.50
40622;DHT22;26324;52.040;11.528;2022-09-02T10:10:29;23.60;37.20
40622;DHT22;26324;52.040;11.528;2022-09-02T10:13:33;24.00;37.60
40622;DHT22;26324;52.040;11.528;2022-09-02T10:16:20;24.00;36.40
40622;DHT22;26324;52.040;11.528;2022-09-02T10:18:53;24.30;35.90
40622;DHT22;26324;52.040;11.528;2022-09-02T10:21:26;24.50;35.40
40622;DHT22;26324;52.040;11.528;2022-09-02T10:24:00;24.60;34.50
40622;DHT22;26324;52.040;11.528;2022-09-02T10:29:37;24.50;36.40
40622;DHT22;26324;52.040;11.528;2022-09-02T10:35:06;24.60;33.80
40622;DHT22;26324;52.040;11.528;2022-09-02T10:40:19;24.40;36.10
40622;DHT22;26324;52.040;11.528;2022-09-02T10:43:06;24.60;34.40
40622;DHT22;26324;52.040;11.528;2022-09-02T10:50:52;23.80;35.10
40622;DHT22;26324;52.040;11.528;2022-09-02T10:53:33;23.80;36.20
40622;DHT22;26324;52.040;11.528;2022-09-02T10:56:04;24.50;35.20
40622;DHT22;26324;52.040;11.528;2022-09-02T11:01:30;25.10;32.70
40622;DHT22;26324;52.040;11.528;2022-09-02T11:06:40;24.00;34.80
40622;DHT22;26324;52.040;11.528;2022-09-02T11:09:13;24.10;35.40
40622;DHT22;26324;52.040;11.528;2022-09-02T11:11:56;24.60;34.20
40622;DHT22;26324;52.040;11.528;2022-09-02T11:14:45;24.40;33.60
40622;DHT22;26324;52.040;11.528;2022-09-02T11:17:34;24.20;34.60
40622;DHT22;26324;52.040;11.528;2022-09-02T11:23:16;23.90;35.00
40622;DHT22;26324;52.040;11.528;2022-09-02T11:28:40;24.30;35.60
40622;DHT22;26324;52.040;11.528;2022-09-02T11:31:29;24.70;34.40
40622;DHT22;26324;52.040;11.528;2022-09-02T11:34:19;25.30;33.70
40622;DHT22;26324;52.040;11.528;2022-09-02T11:36:47;25.60;31.60
40622;DHT22;26324;52.040;11.528;2022-09-02T11:39:17;25.10;32.60
40622;DHT22;26324;52.040;11.528;2022-09-02T11:42:11;24.60;34.00
40622;DHT22;26324;52.040;11.528;2022-09-02T11:48:10;25.00;32.50
40622;DHT22;26324;52.040;11.528;2022-09-02T11:50:53;24.80;33.50
40622;DHT22;26324;52.040;11.528;2022-09-02T11:53:39;25.00;33.50
40622;DHT22;26324;52.040;11.528;2022-09-02T11:56:20;25.10;32.10
40622;DHT22;26324;52.040;11.528;2022-09-02T11:58:50;24.50;33.70
40622;DHT22;26324;52.040;11.528;2022-09-02T12:01:27;24.60;34.70
40622;DHT22;26324;52.040;11.528;2022-09-02T12:04:03;25.10;34.00
40622;DHT22;26324;52.040;11.528;2022-09-02T12:06:29;25.40;32.50
40622;DHT22;26324;52.040;11.528;2022-09-02T12:08:58;25.00;33.30
40622;DHT22;26324;52.040;11.528;2022-09-02T12:11:38;25.10;33.90
40622;DHT22;26324;52.040;11.528;2022-09-02T12:14:07;25.50;33.00
40622;DHT22;26324;52.040;11.528;2022-09-02T12:16:41;25.60;32.00
40622;DHT22;26324;52.040;11.528;2022-09-02T12:24:49;24.30;33.80
40622;DHT22;26324;52.040;11.528;2022-09-02T12:27:34;24.30;35.90
40622;DHT22;26324;52.040;11.528;2022-09-02T12:30:06;24.90;33.90
40622;DHT22;26324;52.040;11.528;2022-09-02T12:33:00;24.80;33.70
40622;DHT22;26324;52.040;11.528;2022-09-02T12:40:40;24.50;34.20
40622;DHT22;26324;52.040;11.528;2022-09-02T12:43:33;24.70;33.10
40622;DHT22;26324;52.040;11.528;2022-09-02T12:46:20;24.90;33.30
40622;DHT22;26324;52.040;11.528;2022-09-02T12:49:03;25.40;33.40
40622;DHT22;26324;52.040;11.528;2022-09-02T12:51:50;25.60;31.30
40622;DHT22;26324;52.040;11.528;2022-09-02T12:54:17;25.50;31.90
40622;DHT22;26324;52.040;11.528;2022-09-02T12:56:47;25.60;31.30
40622;DHT22;26324;52.040;11.528;2022-09-02T12:59:44;25.50;32.00
40622;DHT22;26324;52.040;11.528;2022-09-02T13:02:16;25.20;32.60
40622;DHT22;26324;52.040;11.528;2022-09-02T13:07:56;25.00;32.90
40622;DHT22;26324;52.040;11.528;2022-09-02T13:11:06;25.20;32.80
40622;DHT22;26324;52.040;11.528;2022-09-02T13:17:03;25.00;32.70
40622;DHT22;26324;52.040;11.528;2022-09-02T13:19:57;24.80;31.80
40622;DHT22;26324;52.040;11.528;2022-09-02T13:25:24;25.00;32.40
40622;DHT22;26324;52.040;11.528;2022-09-02T13:28:13;25.10;32.10
40622;DHT22;26324;52.040;11.528;2022-09-02T13:33:28;25.40;31.40
40622;DHT22;26324;52.040;11.528;2022-09-02T13:35:56;25.60;30.90
40622;DHT22;26324;52.040;11.528;2022-09-02T13:38:25;25.60;31.40
40622;DHT22;26324;52.040;11.528;2022-09-02T13:40:51;25.80;31.20
40622;DHT22;26324;52.040;11.528;2022-09-02T13:43:20;25.60;31.20
40622;DHT22;26324;52.040;11.528;2022-09-02T13:45:48;25.50;31.90
40622;DHT22;26324;52.040;11.528;2022-09-02T13:48:14;26.10;31.00
40622;DHT22;26324;52.040;11.528;2022-09-02T13:50:43;26.40;29.50
40622;DHT22;26324;52.040;11.528;2022-09-02T13:53:13;26.30;29.20
40622;DHT22;26324;52.040;11.528;2022-09-02T13:55:47;26.90;29.50
40622;DHT22;26324;52.040;11.528;2022-09-02T14:00:54;31.90;23.40
40622;DHT22;26324;52.040;11.528;2022-09-02T14:03:21;34.00;21.40
40622;DHT22;26324;52.040;11.528;2022-09-02T14:05:49;34.70;19.60
40622;DHT22;26324;52.040;11.528;2022-09-02T14:08:20;34.60;19.50
40622;DHT22;26324;52.040;11.528;2022-09-02T14:10:48;34.00;19.80
40622;DHT22;26324;52.040;11.528;2022-09-02T14:13:16;34.20;20.10
40622;DHT22;26324;52.040;11.528;2022-09-02T14:15:41;33.90;19.70
40622;DHT22;26324;52.040;11.528;2022-09-02T14:18:11;31.90;22.00
40622;DHT22;26324;52.040;11.528;2022-09-02T14:23:17;29.50;24.50
40622;DHT22;26324;52.040;11.528;2022-09-02T14:25:53;29.10;25.60
40622;DHT22;26324;52.040;11.528;2022-09-02T14:28:25;29.20;26.30
40622;DHT22;26324;52.040;11.528;2022-09-02T14:31:03;31.00;24.20
40622;DHT22;26324;52.040;11.528;2022-09-02T14:41:35;35.80;19.30
40622;DHT22;26324;52.040;11.528;2022-09-02T14:44:14;35.70;19.10
40622;DHT22;26324;52.040;11.528;2022-09-02T14:46:46;34.70;20.30
40622;DHT22;26324;52.040;11.528;2022-09-02T14:51:56;37.10;17.80
40622;DHT22;26324;52.040;11.528;2022-09-02T14:54:34;38.00;17.10
40622;DHT22;26324;52.040;11.528;2022-09-02T14:57:01;38.30;16.30
40622;DHT22;26324;52.040;11.528;2022-09-02T14:59:27;37.20;16.90
40622;DHT22;26324;52.040;11.528;2022-09-02T15:01:53;34.60;19.00
40622;DHT22;26324;52.040;11.528;2022-09-02T15:04:20;33.40;20.80
40622;DHT22;26324;52.040;11.528;2022-09-02T15:06:46;34.60;20.10
40622;DHT22;26324;52.040;11.528;2022-09-02T15:09:12;36.20;18.30
40622;DHT22;26324;52.040;11.528;2022-09-02T15:11:49;35.80;18.20
40622;DHT22;26324;52.040;11.528;2022-09-02T15:14:17;33.10;20.50
40622;DHT22;26324;52.040;11.528;2022-09-02T15:16:42;30.70;23.10
40622;DHT22;26324;52.040;11.528;2022-09-02T15:19:08;29.40;24.60
40622;DHT22;26324;52.040;11.528;2022-09-02T15:21:34;28.40;25.20
40622;DHT22;26324;52.040;11.528;2022-09-02T15:23:59;28.10;25.50
40622;DHT22;26324;52.040;11.528;2022-09-02T15:26:25;27.60;26.30
40622;DHT22;26324;52.040;11.528;2022-09-02T15:28:50;27.60;26.90
40622;DHT22;26324;52.040;11.528;2022-09-02T15:31:16;27.40;27.30
40622;DHT22;26324;52.040;11.528;2022-09-02T15:33:48;27.10;27.60
40622;DHT22;26324;52.040;11.528;2022-09-02T15:36:13;28.10;27.40
40622;DHT22;26324;52.040;11.528;2022-09-02T15:38:39;29.90;24.50
40622;DHT22;26324;52.040;11.528;2022-09-02T15:41:24;31.00;23.50
40622;DHT22;26324;52.040;11.528;2022-09-02T15:43:50;30.90;22.90
40622;DHT22;26324;52.040;11.528;2022-09-02T15:46:24;32.80;21.60
40622;DHT22;26324;52.040;11.528;2022-09-02T15:48:50;34.50;20.00
40622;DHT22;26324;52.040;11.528;2022-09-02T15:51:17;35.10;19.10
40622;DHT22;26324;52.040;11.528;2022-09-02T15:53:42;35.30;18.40
40622;DHT22;26324;52.040;11.528;2022-09-02T15:56:16;35.80;18.10
40622;DHT22;26324;52.040;11.528;2022-09-02T15:58:43;36.20;17.00
40622;DHT22;26324;52.040;11.528;2022-09-02T16:01:08;35.60;18.00
40622;DHT22;26324;52.040;11.528;2022-09-02T16:03:34;37.40;16.90
40622;DHT22;26324;52.040;11.528;2022-09-02T16:06:05;38.30;16.10
40622;DHT22;26324;52.040;11.528;2022-09-02T16:08:32;38.30;16.00
40622;DHT22;26324;52.040;11.528;2022-09-02T16:11:02;37.60;16.50
40622;DHT22;26324;52.040;11.528;2022-09-02T16:13:29;36.10;17.30
40622;DHT22;26324;52.040;11.528;2022-09-02T16:16:03;35.60;18.10
40622;DHT22;26324;52.040;11.528;2022-09-02T16:18:28;35.60;18.20
40622;DHT22;26324;52.040;11.528;2022-09-02T16:20:54;35.10;19.10
40622;DHT22;26324;52.040;11.528;2022-09-02T16:23:19;35.10;18.80
40622;DHT22;26324;52.040;11.528;2022-09-02T16:25:45;34.60;19.20
40622;DHT22;26324;52.040;11.528;2022-09-02T16:28:10;33.90;20.30
40622;DHT22;26324;52.040;11.528;2022-09-02T16:30:36;33.70;20.40
40622;DHT22;26324;52.040;11.528;2022-09-02T16:33:02;34.30;19.80
40622;DHT22;26324;52.040;11.528;2022-09-02T16:35:28;33.80;20.10
40622;DHT22;26324;52.040;11.528;2022-09-02T16:37:53;33.80;20.30
40622;DHT22;26324;52.040;11.528;2022-09-02T16:40:21;34.50;19.90
40622;DHT22;26324;52.040;11.528;2022-09-02T16:42:48;35.50;19.00
40622;DHT22;26324;52.040;11.528;2022-09-02T16:45:13;35.60;18.50
40622;DHT22;26324;52.040;11.528;2022-09-02T16:47:39;36.00;18.30
40622;DHT22;26324;52.040;11.528;2022-09-02T16:50:05;35.50;18.70
40622;DHT22;26324;52.040;11.528;2022-09-02T16:52:31;35.50;18.70
40622;DHT22;26324;52.040;11.528;2022-09-02T16:54:59;35.90;18.30